sensor_id;sensor_type;location;lat;lon;timestamp;P1;durP1;ratioP1;P2;durP2;ratioP2
6007;SDS011;3032;49.484;11.112;2022-09-02T00:00:43;2.45;;;2.13;;
6007;SDS011;3032;49.484;11.112;2022-09-02T00:03:11;8.88;;;3.28;;
6007;SDS011;3032;49.484;11.112;2022-09-02T00:05:37;3.03;;;2.60;;
6007;SDS011;3032;49.484;11.112;2022-09-02T00:08:03;2.53;;;2.20;;
6007;SDS011;3032;49.484;11.112;2022-09-02T00:10:30;2.05;;;1.85;;
6007;SDS011;3032;49.484;11.112;2022-09-02T00:12:57;3.83;;;2.40;;
6007;SDS011;3032;49.484;11.112;2022-09-02T00:15:22;2.20;;;2.00;;
6007;SDS011;3032;49.484;11.112;2022-09-02T00:17:48;1.97;;;1.87;;
6007;SDS011;3032;49.484;11.112;2022-09-02T00:20:14;2.40;;;2.20;;
6007;SDS011;3032;49.484;11.112;2022-09-02T00:22:39;2.90;;;1.97;;
6007;SDS011;3032;49.484;11.112;2022-09-02T00:25:05;2.10;;;2.00;;
6007;SDS011;3032;49.484;11.112;2022-09-02T00:27:32;3.20;;;2.17;;
6007;SDS011;3032;49.484;11.112;2022-09-02T00:29:58;2.10;;;1.80;;
6007;SDS011;3032;49.484;11.112;2022-09-02T00:32:23;2.30;;;1.87;;
6007;SDS011;3032;49.484;11.112;2022-09-02T00:34:49;2.83;;;2.30;;
6007;SDS011;3032;49.484;11.112;2022-09-02T00:37:14;2.00;;;1.90;;
6007;SDS011;3032;49.484;11.112;2022-09-02T00:39:41;4.40;;;2.15;;
6007;SDS011;3032;49.484;11.112;2022-09-02T00:42:06;2.70;;;2.17;;
6007;SDS011;3032;49.484;11.112;2022-09-02T00:44:32;2.17;;;2.07;;
6007;SDS011;3032;49.484;11.112;2022-09-02T00:46:58;3.07;;;2.30;;
6007;SDS011;3032;49.484;11.112;2022-09-02T00:49:25;2.40;;;2.20;;
6007;SDS011;3032;49.484;11.112;2022-09-02T00:54:23;1.90;;;1.80;;
6007;SDS011;3032;49.484;11.112;2022-09-02T00:56:50;5.05;;;2.20;;
6007;SDS011;3032;49.484;11.112;2022-09-02T00:59:19;3.42;;;2.45;;
6007;SDS011;3032;49.484;11.112;2022-09-02T01:01:51;4.63;;;2.40;;
6007;SDS011;3032;49.484;11.112;2022-09-02T01:04:17;3.97;;;2.30;;
6007;SDS011;3032;49.484;11.112;2022-09-02T01:06:42;4.73;;;2.20;;
6007;SDS011;3032;49.484;11.112;2022-09-02T01:09:11;3.28;;;2.58;;
6007;SDS011;3032;49.484;11.112;2022-09-02T01:11:45;2.22;;;2.03;;
6007;SDS011;3032;49.484;11.112;2022-09-02T01:14:14;2.47;;;2.28;;
6007;SDS011;3032;49.484;11.112;2022-09-02T01:16:42;3.53;;;2.15;;
6007;SDS011;3032;49.484;11.112;2022-09-02T01:19:21;2.25;;;2.13;;
6007;SDS011;3032;49.484;11.112;2022-09-02T01:21:54;2.78;;;2.20;;
6007;SDS011;3032;49.484;11.112;2022-09-02T01:24:21;4.00;;;2.50;;
6007;SDS011;3032;49.484;11.112;2022-09-02T01:26:54;2.38;;;2.17;;
6007;SDS011;3032;49.484;11.112;2022-09-02T01:29:21;4.65;;;2.10;;
6007;SDS011;3032;49.484;11.112;2022-09-02T01:31:48;2.25;;;2.05;;
6007;SDS011;3032;49.484;11.112;2022-09-02T01:34:14;2.92;;;2.47;;
6007;SDS011;3032;49.484;11.112;2022-09-02T01:36:40;2.67;;;2.50;;
6007;SDS011;3032;49.484;11.112;2022-09-02T01:39:07;2.50;;;2.03;;
6007;SDS011;3032;49.484;11.112;2022-09-02T01:41:35;4.90;;;2.30;;
6007;SDS011;3032;49.484;11.112;2022-09-02T01:44:01;4.75;;;2.17;;
6007;SDS011;3032;49.484;11.112;2022-09-02T01:46:28;1.65;;;1.55;;
6007;SDS011;3032;49.484;11.112;2022-09-02T01:48:54;2.20;;;2.00;;
6007;SDS011;3032;49.484;11.112;2022-09-02T01:51:19;3.30;;;2.50;;
6007;SDS011;3032;49.484;11.112;2022-09-02T01:53:45;3.20;;;2.20;;
6007;SDS011;3032;49.484;11.112;2022-09-02T01:56:12;3.15;;;2.35;;
6007;SDS011;3032;49.484;11.112;2022-09-02T01:58:39;3.20;;;2.00;;
6007;SDS011;3032;49.484;11.112;2022-09-02T02:01:05;2.60;;;2.40;;
6007;SDS011;3032;49.484;11.112;2022-09-02T02:03:31;2.78;;;2.25;;
6007;SDS011;3032;49.484;11.112;2022-09-02T02:05:58;2.70;;;2.50;;
6007;SDS011;3032;49.484;11.112;2022-09-02T02:08:23;2.50;;;2.05;;
6007;SDS011;3032;49.484;11.112;2022-09-02T02:10:49;2.40;;;2.20;;
6007;SDS011;3032;49.484;11.112;2022-09-02T02:13:15;3.83;;;1.90;;
6007;SDS011;3032;49.484;11.112;2022-09-02T02:15:41;2.37;;;2.20;;
6007;SDS011;3032;49.484;11.112;2022-09-02T02:18:08;1.92;;;1.83;;
6007;SDS011;3032;49.484;11.112;2022-09-02T02:20:34;2.40;;;2.20;;
6007;SDS011;3032;49.484;11.112;2022-09-02T02:23:00;3.03;;;1.77;;
6007;SDS011;3032;49.484;11.112;2022-09-02T02:25:26;2.20;;;1.67;;
6007;SDS011;3032;49.484;11.112;2022-09-02T02:27:52;2.30;;;1.83;;
6007;SDS011;3032;49.484;11.112;2022-09-02T02:30:18;2.20;;;2.00;;
6007;SDS011;3032;49.484;11.112;2022-09-02T02:32:44;2.03;;;1.93;;
6007;SDS011;3032;49.484;11.112;2022-09-02T02:35:11;1.98;;;1.88;;
6007;SDS011;3032;49.484;11.112;2022-09-02T02:37:41;5.88;;;2.58;;
6007;SDS011;3032;49.484;11.112;2022-09-02T02:40:07;1.92;;;1.83;;
6007;SDS011;3032;49.484;11.112;2022-09-02T02:42:36;3.72;;;2.20;;
6007;SDS011;3032;49.484;11.112;2022-09-02T02:45:02;1.90;;;1.80;;
6007;SDS011;3032;49.484;11.112;2022-09-02T02:47:36;2.42;;;1.65;;
6007;SDS011;3032;49.484;11.112;2022-09-02T02:50:07;2.08;;;1.70;;
6007;SDS011;3032;49.484;11.112;2022-09-02T02:52:34;4.25;;;1.90;;
6007;SDS011;3032;49.484;11.112;2022-09-02T02:55:01;2.65;;;1.65;;
6007;SDS011;3032;49.484;11.112;2022-09-02T02:57:27;2.80;;;1.50;;
6007;SDS011;3032;49.484;11.112;2022-09-02T02:59:53;2.00;;;1.90;;
6007;SDS011;3032;49.484;11.112;2022-09-02T03:02:18;3.23;;;2.30;;
6007;SDS011;3032;49.484;11.112;2022-09-02T03:04:44;2.00;;;1.90;;
6007;SDS011;3032;49.484;11.112;2022-09-02T03:07:09;2.00;;;1.90;;
6007;SDS011;3032;49.484;11.112;2022-09-02T03:09:35;2.47;;;2.27;;
6007;SDS011;3032;49.484;11.112;2022-09-02T03:12:01;2.00;;;1.90;;
6007;SDS011;3032;49.484;11.112;2022-09-02T03:14:26;2.93;;;1.80;;
6007;SDS011;3032;49.484;11.112;2022-09-02T03:16:52;2.47;;;2.20;;
6007;SDS011;3032;49.484;11.112;2022-09-02T03:19:18;4.03;;;2.20;;
6007;SDS011;3032;49.484;11.112;2022-09-02T03:21:43;3.00;;;2.17;;
6007;SDS011;3032;49.484;11.112;2022-09-02T03:24:09;7.83;;;2.13;;
6007;SDS011;3032;49.484;11.112;2022-09-02T03:26:36;5.05;;;2.15;;
6007;SDS011;3032;49.484;11.112;2022-09-02T03:29:02;1.92;;;1.83;;
6007;SDS011;3032;49.484;11.112;2022-09-02T03:31:29;2.13;;;1.92;;
6007;SDS011;3032;49.484;11.112;2022-09-02T03:33:54;2.70;;;2.50;;
6007;SDS011;3032;49.484;11.112;2022-09-02T03:36:27;2.67;;;2.10;;
6007;SDS011;3032;49.484;11.112;2022-09-02T03:38:55;3.30;;;1.80;;
6007;SDS011;3032;49.484;11.112;2022-09-02T03:41:21;2.97;;;2.05;;
6007;SDS011;3032;49.484;11.112;2022-09-02T03:43:47;2.40;;;2.20;;
6007;SDS011;3032;49.484;11.112;2022-09-02T03:46:13;3.23;;;2.00;;
6007;SDS011;3032;49.484;11.112;2022-09-02T03:48:39;3.53;;;2.23;;
6007;SDS011;3032;49.484;11.112;2022-09-02T03:51:05;2.13;;;1.90;;
6007;SDS011;3032;49.484;11.112;2022-09-02T03:53:31;3.23;;;2.10;;
6007;SDS011;3032;49.484;11.112;2022-09-02T03:56:02;4.30;;;1.88;;
6007;SDS011;3032;49.484;11.112;2022-09-02T03:58:32;2.65;;;1.92;;
6007;SDS011;3032;49.484;11.112;2022-09-02T04:00:59;3.90;;;2.03;;
6007;SDS011;3032;49.484;11.112;2022-09-02T04:03:25;4.60;;;2.40;;
6007;SDS011;3032;49.484;11.112;2022-09-02T04:05:51;2.33;;;2.22;;
6007;SDS011;3032;49.484;11.112;2022-09-02T04:08:17;2.20;;;2.10;;
6007;SDS011;3032;49.484;11.112;2022-09-02T04:10:44;2.17;;;2.08;;
6007;SDS011;3032;49.484;11.112;2022-09-02T04:13:09;3.93;;;2.30;;
6007;SDS011;3032;49.484;11.112;2022-09-02T04:15:39;2.75;;;2.55;;
6007;SDS011;3032;49.484;11.112;2022-09-02T04:18:08;2.03;;;1.80;;
6007;SDS011;3032;49.484;11.112;2022-09-02T04:20:36;2.35;;;2.15;;
6007;SDS011;3032;49.484;11.112;2022-09-02T04:23:03;2.28;;;1.92;;
6007;SDS011;3032;49.484;11.112;2022-09-02T04:25:29;2.50;;;2.30;;
6007;SDS011;3032;49.484;11.112;2022-09-02T04:27:55;2.50;;;2.30;;
6007;SDS011;3032;49.484;11.112;2022-09-02T04:30:21;2.80;;;2.20;;
6007;SDS011;3032;49.484;11.112;2022-09-02T04:32:49;2.50;;;2.30;;
6007;SDS011;3032;49.484;11.112;2022-09-02T04:35:15;1.90;;;1.80;;
6007;SDS011;3032;49.484;11.112;2022-09-02T04:37:41;2.57;;;2.37;;
6007;SDS011;3032;49.484;11.112;2022-09-02T04:40:08;8.93;;;2.60;;
6007;SDS011;3032;49.484;11.112;2022-09-02T04:42:34;2.95;;;2.22;;
6007;SDS011;3032;49.484;11.112;2022-09-02T04:45:00;2.97;;;2.20;;
6007;SDS011;3032;49.484;11.112;2022-09-02T04:47:26;2.77;;;2.57;;
6007;SDS011;3032;49.484;11.112;2022-09-02T04:49:52;2.27;;;2.07;;
6007;SDS011;3032;49.484;11.112;2022-09-02T04:52:18;3.00;;;2.07;;
6007;SDS011;3032;49.484;11.112;2022-09-02T04:54:45;2.35;;;1.90;;
6007;SDS011;3032;49.484;11.112;2022-09-02T04:57:11;2.58;;;2.38;;
6007;SDS011;3032;49.484;11.112;2022-09-02T04:59:36;2.40;;;2.30;;
6007;SDS011;3032;49.484;11.112;2022-09-02T05:02:03;2.23;;;2.00;;
6007;SDS011;3032;49.484;11.112;2022-09-02T05:04:29;2.40;;;2.20;;
6007;SDS011;3032;49.484;11.112;2022-09-02T05:06:55;2.15;;;1.95;;
6007;SDS011;3032;49.484;11.112;2022-09-02T05:09:25;3.53;;;2.05;;
6007;SDS011;3032;49.484;11.112;2022-09-02T05:11:52;3.40;;;2.00;;
6007;SDS011;3032;49.484;11.112;2022-09-02T05:14:21;2.50;;;2.30;;
6007;SDS011;3032;49.484;11.112;2022-09-02T05:16:48;2.45;;;2.22;;
6007;SDS011;3032;49.484;11.112;2022-09-02T05:19:18;2.25;;;2.15;;
6007;SDS011;3032;49.484;11.112;2022-09-02T05:21:46;2.22;;;2.13;;
6007;SDS011;3032;49.484;11.112;2022-09-02T05:24:11;2.80;;;2.60;;
6007;SDS011;3032;49.484;11.112;2022-09-02T05:26:37;2.60;;;2.40;;
6007;SDS011;3032;49.484;11.112;2022-09-02T05:29:04;4.75;;;2.28;;
6007;SDS011;3032;49.484;11.112;2022-09-02T05:31:34;2.78;;;2.65;;
6007;SDS011;3032;49.484;11.112;2022-09-02T05:33:59;2.40;;;2.30;;
6007;SDS011;3032;49.484;11.112;2022-09-02T05:36:25;2.70;;;2.60;;
6007;SDS011;3032;49.484;11.112;2022-09-02T05:38:51;2.83;;;2.07;;
6007;SDS011;3032;49.484;11.112;2022-09-02T05:41:20;3.90;;;2.53;;
6007;SDS011;3032;49.484;11.112;2022-09-02T05:43:48;3.95;;;2.85;;
6007;SDS011;3032;49.484;11.112;2022-09-02T05:46:16;2.63;;;2.45;;
6007;SDS011;3032;49.484;11.112;2022-09-02T05:48:45;2.65;;;2.50;;
6007;SDS011;3032;49.484;11.112;2022-09-02T05:51:30;3.30;;;2.40;;
6007;SDS011;3032;49.484;11.112;2022-09-02T05:53:58;2.63;;;2.17;;
6007;SDS011;3032;49.484;11.112;2022-09-02T05:56:25;2.22;;;2.13;;
6007;SDS011;3032;49.484;11.112;2022-09-02T05:58:51;2.30;;;2.20;;
6007;SDS011;3032;49.484;11.112;2022-09-02T06:01:19;3.25;;;2.40;;
6007;SDS011;3032;49.484;11.112;2022-09-02T06:03:45;3.67;;;3.40;;
6007;SDS011;3032;49.484;11.112;2022-09-02T06:06:11;4.30;;;2.88;;
6007;SDS011;3032;49.484;11.112;2022-09-02T06:08:37;2.72;;;2.50;;
6007;SDS011;3032;49.484;11.112;2022-09-02T06:11:03;4.07;;;2.00;;
6007;SDS011;3032;49.484;11.112;2022-09-02T06:13:33;2.53;;;2.20;;
6007;SDS011;3032;49.484;11.112;2022-09-02T06:16:00;2.03;;;1.80;;
6007;SDS011;3032;49.484;11.112;2022-09-02T06:18:26;3.53;;;1.90;;
6007;SDS011;3032;49.484;11.112;2022-09-02T06:20:52;1.90;;;1.80;;
6007;SDS011;3032;49.484;11.112;2022-09-02T06:23:18;4.37;;;2.10;;
6007;SDS011;3032;49.484;11.112;2022-09-02T06:25:44;2.13;;;1.93;;
6007;SDS011;3032;49.484;11.112;2022-09-02T06:28:10;2.05;;;1.95;;
6007;SDS011;3032;49.484;11.112;2022-09-02T06:30:37;2.10;;;2.00;;
6007;SDS011;3032;49.484;11.112;2022-09-02T06:33:04;1.77;;;1.67;;
6007;SDS011;3032;49.484;11.112;2022-09-02T06:35:30;4.13;;;1.67;;
6007;SDS011;3032;49.484;11.112;2022-09-02T06:38:00;1.83;;;1.73;;
6007;SDS011;3032;49.484;11.112;2022-09-02T06:40:25;6.30;;;1.70;;
6007;SDS011;3032;49.484;11.112;2022-09-02T06:42:51;1.73;;;1.63;;
6007;SDS011;3032;49.484;11.112;2022-09-02T06:45:18;3.28;;;1.70;;
6007;SDS011;3032;49.484;11.112;2022-09-02T06:47:44;1.92;;;1.33;;
6007;SDS011;3032;49.484;11.112;2022-09-02T06:50:10;3.40;;;2.00;;
6007;SDS011;3032;49.484;11.112;2022-09-02T06:52:37;1.65;;;1.55;;
6007;SDS011;3032;49.484;11.112;2022-09-02T06:55:03;2.03;;;1.92;;
6007;SDS011;3032;49.484;11.112;2022-09-02T06:57:29;2.75;;;1.50;;
6007;SDS011;3032;49.484;11.112;2022-09-02T06:59:55;1.80;;;1.50;;
6007;SDS011;3032;49.484;11.112;2022-09-02T07:02:21;3.00;;;1.87;;
6007;SDS011;3032;49.484;11.112;2022-09-02T07:04:46;3.67;;;1.57;;
6007;SDS011;3032;49.484;11.112;2022-09-02T07:07:33;1.50;;;1.40;;
6007;SDS011;3032;49.484;11.112;2022-09-02T07:09:59;6.18;;;2.20;;
6007;SDS011;3032;49.484;11.112;2022-09-02T07:12:25;2.00;;;1.90;;
6007;SDS011;3032;49.484;11.112;2022-09-02T07:14:51;2.70;;;1.73;;
6007;SDS011;3032;49.484;11.112;2022-09-02T07:17:18;1.52;;;1.42;;
6007;SDS011;3032;49.484;11.112;2022-09-02T07:19:46;1.90;;;1.80;;
6007;SDS011;3032;49.484;11.112;2022-09-02T07:22:13;4.13;;;1.92;;
6007;SDS011;3032;49.484;11.112;2022-09-02T07:24:39;1.50;;;1.40;;
6007;SDS011;3032;49.484;11.112;2022-09-02T07:27:05;2.28;;;1.60;;
6007;SDS011;3032;49.484;11.112;2022-09-02T07:29:31;2.90;;;1.70;;
6007;SDS011;3032;49.484;11.112;2022-09-02T07:31:57;2.65;;;1.55;;
6007;SDS011;3032;49.484;11.112;2022-09-02T07:34:23;3.70;;;1.43;;
6007;SDS011;3032;49.484;11.112;2022-09-02T07:36:49;1.93;;;1.53;;
6007;SDS011;3032;49.484;11.112;2022-09-02T07:39:15;4.53;;;1.70;;
6007;SDS011;3032;49.484;11.112;2022-09-02T07:41:44;2.08;;;1.48;;
6007;SDS011;3032;49.484;11.112;2022-09-02T07:44:11;1.90;;;1.70;;
6007;SDS011;3032;49.484;11.112;2022-09-02T07:46:36;8.27;;;1.47;;
6007;SDS011;3032;49.484;11.112;2022-09-02T07:49:03;1.80;;;1.60;;
6007;SDS011;3032;49.484;11.112;2022-09-02T07:51:31;1.60;;;1.40;;
6007;SDS011;3032;49.484;11.112;2022-09-02T07:53:58;3.00;;;1.30;;
6007;SDS011;3032;49.484;11.112;2022-09-02T07:56:24;1.50;;;1.40;;
6007;SDS011;3032;49.484;11.112;2022-09-02T07:58:50;2.00;;;1.50;;
6007;SDS011;3032;49.484;11.112;2022-09-02T08:01:16;1.80;;;1.70;;
6007;SDS011;3032;49.484;11.112;2022-09-02T08:03:42;2.13;;;1.90;;
6007;SDS011;3032;49.484;11.112;2022-09-02T08:06:09;1.50;;;1.40;;
6007;SDS011;3032;49.484;11.112;2022-09-02T08:08:35;2.03;;;1.63;;
6007;SDS011;3032;49.484;11.112;2022-09-02T08:11:01;2.23;;;1.63;;
6007;SDS011;3032;49.484;11.112;2022-09-02T08:13:27;3.83;;;1.40;;
6007;SDS011;3032;49.484;11.112;2022-09-02T08:15:53;1.57;;;1.47;;
6007;SDS011;3032;49.484;11.112;2022-09-02T08:18:18;3.27;;;1.40;;
6007;SDS011;3032;49.484;11.112;2022-09-02T08:20:45;2.45;;;1.50;;
6007;SDS011;3032;49.484;11.112;2022-09-02T08:23:11;1.80;;;1.60;;
6007;SDS011;3032;49.484;11.112;2022-09-02T08:25:38;1.45;;;1.35;;
6007;SDS011;3032;49.484;11.112;2022-09-02T08:28:04;2.22;;;1.45;;
6007;SDS011;3032;49.484;11.112;2022-09-02T08:30:30;5.15;;;1.90;;
6007;SDS011;3032;49.484;11.112;2022-09-02T08:32:56;2.35;;;1.52;;
6007;SDS011;3032;49.484;11.112;2022-09-02T08:35:22;1.77;;;1.47;;
6007;SDS011;3032;49.484;11.112;2022-09-02T08:37:47;1.67;;;1.57;;
6007;SDS011;3032;49.484;11.112;2022-09-02T08:40:18;2.03;;;1.40;;
6007;SDS011;3032;49.484;11.112;2022-09-02T08:42:50;2.72;;;1.40;;
6007;SDS011;3032;49.484;11.112;2022-09-02T08:45:24;3.22;;;1.60;;
6007;SDS011;3032;49.484;11.112;2022-09-02T08:47:58;2.20;;;1.70;;
6007;SDS011;3032;49.484;11.112;2022-09-02T08:50:30;1.55;;;1.40;;
6007;SDS011;3032;49.484;11.112;2022-09-02T08:53:03;1.55;;;1.45;;
6007;SDS011;3032;49.484;11.112;2022-09-02T08:55:37;1.60;;;1.50;;
6007;SDS011;3032;49.484;11.112;2022-09-02T08:58:19;3.85;;;1.40;;
6007;SDS011;3032;49.484;11.112;2022-09-02T09:17:31;3.20;;;1.40;;
6007;SDS011;3032;49.484;11.112;2022-09-02T09:20:18;1.98;;;1.42;;
6007;SDS011;3032;49.484;11.112;2022-09-02T09:22:48;1.55;;;1.33;;
6007;SDS011;3032;49.484;11.112;2022-09-02T09:25:20;1.27;;;1.25;;
6007;SDS011;3032;49.484;11.112;2022-09-02T09:27:57;1.52;;;1.20;;
6007;SDS011;3032;49.484;11.112;2022-09-02T09:30:23;1.98;;;1.50;;
6007;SDS011;3032;49.484;11.112;2022-09-02T09:32:56;1.60;;;1.40;;
6007;SDS011;3032;49.484;11.112;2022-09-02T09:35:27;7.03;;;1.17;;
6007;SDS011;3032;49.484;11.112;2022-09-02T09:38:12;2.75;;;1.15;;
6007;SDS011;3032;49.484;11.112;2022-09-02T09:40:38;1.92;;;1.40;;
6007;SDS011;3032;49.484;11.112;2022-09-02T09:45:38;1.25;;;1.20;;
6007;SDS011;3032;49.484;11.112;2022-09-02T09:50:46;1.50;;;1.30;;
6007;SDS011;3032;49.484;11.112;2022-09-02T09:53:34;1.40;;;1.30;;
6007;SDS011;3032;49.484;11.112;2022-09-02T09:56:04;2.00;;;1.30;;
6007;SDS011;3032;49.484;11.112;2022-09-02T10:01:16;3.13;;;1.50;;
6007;SDS011;3032;49.484;11.112;2022-09-02T10:03:51;1.20;;;1.10;;
6007;SDS011;3032;49.484;11.112;2022-09-02T10:06:23;1.35;;;1.35;;
6007;SDS011;3032;49.484;11.112;2022-09-02T10:09:46;1.52;;;1.42;;
6007;SDS011;3032;49.484;11.112;2022-09-02T10:14:51;1.30;;;1.20;;
6007;SDS011;3032;49.484;11.112;2022-09-02T10:20:10;3.05;;;1.20;;
6007;SDS011;3032;49.484;11.112;2022-09-02T10:28:44;1.50;;;1.50;;
6007;SDS011;3032;49.484;11.112;2022-09-02T10:48:01;2.55;;;1.30;;
6007;SDS011;3032;49.484;11.112;2022-09-02T10:56:32;1.10;;;1.00;;
6007;SDS011;3032;49.484;11.112;2022-09-02T10:59:17;1.08;;;1.08;;
6007;SDS011;3032;49.484;11.112;2022-09-02T11:01:53;1.08;;;1.08;;
6007;SDS011;3032;49.484;11.112;2022-09-02T11:07:02;1.27;;;1.17;;
6007;SDS011;3032;49.484;11.112;2022-09-02T11:12:03;1.30;;;1.20;;
6007;SDS011;3032;49.484;11.112;2022-09-02T11:22:59;1.60;;;1.17;;
6007;SDS011;3032;49.484;11.112;2022-09-02T11:25:41;1.67;;;1.23;;
6007;SDS011;3032;49.484;11.112;2022-09-02T11:28:25;1.27;;;1.17;;
6007;SDS011;3032;49.484;11.112;2022-09-02T11:31:14;3.40;;;1.33;;
6007;SDS011;3032;49.484;11.112;2022-09-02T11:36:17;1.20;;;1.10;;
6007;SDS011;3032;49.484;11.112;2022-09-02T11:38:46;1.10;;;0.80;;
6007;SDS011;3032;49.484;11.112;2022-09-02T11:55:33;2.30;;;1.30;;
6007;SDS011;3032;49.484;11.112;2022-09-02T11:58:01;1.17;;;1.08;;
6007;SDS011;3032;49.484;11.112;2022-09-02T12:07:56;1.10;;;1.00;;
6007;SDS011;3032;49.484;11.112;2022-09-02T12:11:06;2.17;;;1.23;;
6007;SDS011;3032;49.484;11.112;2022-09-02T12:21:22;3.07;;;1.10;;
6007;SDS011;3032;49.484;11.112;2022-09-02T12:26:16;1.40;;;1.17;;
6007;SDS011;3032;49.484;11.112;2022-09-02T12:28:43;1.48;;;1.00;;
6007;SDS011;3032;49.484;11.112;2022-09-02T12:33:46;2.42;;;1.00;;
6007;SDS011;3032;49.484;11.112;2022-09-02T12:55:40;1.25;;;1.08;;
6007;SDS011;3032;49.484;11.112;2022-09-02T12:58:37;0.88;;;0.88;;
6007;SDS011;3032;49.484;11.112;2022-09-02T13:06:19;3.10;;;1.10;;
6007;SDS011;3032;49.484;11.112;2022-09-02T13:34:44;1.30;;;0.98;;
6007;SDS011;3032;49.484;11.112;2022-09-02T13:39:58;4.93;;;1.17;;
6007;SDS011;3032;49.484;11.112;2022-09-02T13:42:26;2.10;;;0.82;;
6007;SDS011;3032;49.484;11.112;2022-09-02T13:45:09;0.93;;;0.90;;
6007;SDS011;3032;49.484;11.112;2022-09-02T13:47:43;1.75;;;1.00;;
6007;SDS011;3032;49.484;11.112;2022-09-02T13:50:13;1.30;;;1.20;;
6007;SDS011;3032;49.484;11.112;2022-09-02T13:52:42;1.50;;;1.20;;
6007;SDS011;3032;49.484;11.112;2022-09-02T13:55:12;3.42;;;1.15;;
6007;SDS011;3032;49.484;11.112;2022-09-02T13:57:40;2.25;;;0.98;;
6007;SDS011;3032;49.484;11.112;2022-09-02T14:00:09;1.20;;;1.20;;
6007;SDS011;3032;49.484;11.112;2022-09-02T14:02:39;1.02;;;1.00;;
6007;SDS011;3032;49.484;11.112;2022-09-02T14:05:20;1.07;;;1.07;;
6007;SDS011;3032;49.484;11.112;2022-09-02T14:07:49;1.55;;;1.00;;
6007;SDS011;3032;49.484;11.112;2022-09-02T14:10:18;2.58;;;1.10;;
6007;SDS011;3032;49.484;11.112;2022-09-02T14:12:46;1.70;;;1.20;;
6007;SDS011;3032;49.484;11.112;2022-09-02T14:15:13;1.60;;;1.10;;
6007;SDS011;3032;49.484;11.112;2022-09-02T14:17:41;1.70;;;1.10;;
6007;SDS011;3032;49.484;11.112;2022-09-02T14:20:08;1.00;;;1.00;;
6007;SDS011;3032;49.484;11.112;2022-09-02T14:22:41;1.50;;;0.88;;
6007;SDS011;3032;49.484;11.112;2022-09-02T14:25:13;1.10;;;1.02;;
6007;SDS011;3032;49.484;11.112;2022-09-02T14:27:47;1.25;;;1.25;;
6007;SDS011;3032;49.484;11.112;2022-09-02T14:30:23;1.20;;;1.10;;
6007;SDS011;3032;49.484;11.112;2022-09-02T14:36:00;1.83;;;1.00;;
6007;SDS011;3032;49.484;11.112;2022-09-02T14:38:37;1.00;;;1.00;;
6007;SDS011;3032;49.484;11.112;2022-09-02T14:41:25;1.27;;;0.90;;
6007;SDS011;3032;49.484;11.112;2022-09-02T14:43:55;1.08;;;1.08;;
6007;SDS011;3032;49.484;11.112;2022-09-02T14:46:26;1.90;;;1.15;;
6007;SDS011;3032;49.484;11.112;2022-09-02T14:51:56;6.85;;;1.23;;
6007;SDS011;3032;49.484;11.112;2022-09-02T14:54:38;1.70;;;1.15;;
6007;SDS011;3032;49.484;11.112;2022-09-02T14:57:19;1.13;;;0.90;;
6007;SDS011;3032;49.484;11.112;2022-09-02T14:59:51;1.00;;;0.95;;
6007;SDS011;3032;49.484;11.112;2022-09-02T15:04:53;1.00;;;1.00;;
6007;SDS011;3032;49.484;11.112;2022-09-02T15:07:19;2.78;;;0.93;;
6007;SDS011;3032;49.484;11.112;2022-09-02T15:09:45;1.45;;;1.00;;
6007;SDS011;3032;49.484;11.112;2022-09-02T15:12:15;1.50;;;1.10;;
6007;SDS011;3032;49.484;11.112;2022-09-02T15:14:43;3.25;;;0.80;;
6007;SDS011;3032;49.484;11.112;2022-09-02T15:17:11;3.95;;;1.00;;
6007;SDS011;3032;49.484;11.112;2022-09-02T15:19:38;4.05;;;1.10;;
6007;SDS011;3032;49.484;11.112;2022-09-02T15:22:04;0.80;;;0.80;;
6007;SDS011;3032;49.484;11.112;2022-09-02T15:24:30;1.57;;;1.00;;
6007;SDS011;3032;49.484;11.112;2022-09-02T15:26:55;2.20;;;1.13;;
6007;SDS011;3032;49.484;11.112;2022-09-02T15:29:21;1.10;;;1.10;;
6007;SDS011;3032;49.484;11.112;2022-09-02T15:31:49;2.00;;;1.10;;
6007;SDS011;3032;49.484;11.112;2022-09-02T15:34:16;0.82;;;0.80;;
6007;SDS011;3032;49.484;11.112;2022-09-02T15:36:42;1.07;;;0.97;;
6007;SDS011;3032;49.484;11.112;2022-09-02T15:39:07;1.40;;;1.20;;
6007;SDS011;3032;49.484;11.112;2022-09-02T15:41:33;1.23;;;0.87;;
6007;SDS011;3032;49.484;11.112;2022-09-02T15:44:00;1.25;;;0.90;;
6007;SDS011;3032;49.484;11.112;2022-09-02T15:46:28;0.98;;;0.98;;
6007;SDS011;3032;49.484;11.112;2022-09-02T15:48:55;1.10;;;0.90;;
6007;SDS011;3032;49.484;11.112;2022-09-02T15:51:26;1.25;;;0.90;;
6007;SDS011;3032;49.484;11.112;2022-09-02T15:53:58;1.60;;;1.15;;
6007;SDS011;3032;49.484;11.112;2022-09-02T15:56:27;1.30;;;1.20;;
6007;SDS011;3032;49.484;11.112;2022-09-02T15:58:54;2.15;;;1.00;;
6007;SDS011;3032;49.484;11.112;2022-09-02T16:01:22;1.00;;;0.90;;
6007;SDS011;3032;49.484;11.112;2022-09-02T16:03:52;1.83;;;1.08;;
6007;SDS011;3032;49.484;11.112;2022-09-02T16:06:18;2.22;;;0.95;;
6007;SDS011;3032;49.484;11.112;2022-09-02T16:08:44;1.38;;;1.20;;
6007;SDS011;3032;49.484;11.112;2022-09-02T16:11:10;1.00;;;1.00;;
6007;SDS011;3032;49.484;11.112;2022-09-02T16:13:35;1.10;;;0.90;;
6007;SDS011;3032;49.484;11.112;2022-09-02T16:16:02;1.55;;;1.40;;
6007;SDS011;3032;49.484;11.112;2022-09-02T16:18:30;1.80;;;1.70;;
6007;SDS011;3032;49.484;11.112;2022-09-02T16:20:56;1.80;;;1.70;;
6007;SDS011;3032;49.484;11.112;2022-09-02T16:23:22;2.00;;;1.00;;
6007;SDS011;3032;49.484;11.112;2022-09-02T16:26:04;1.30;;;1.20;;
6007;SDS011;3032;49.484;11.112;2022-09-02T16:28:51;2.95;;;1.90;;
6007;SDS011;3032;49.484;11.112;2022-09-02T16:31:24;6.00;;;1.50;;
6007;SDS011;3032;49.484;11.112;2022-09-02T16:33:58;1.50;;;1.40;;
6007;SDS011;3032;49.484;11.112;2022-09-02T16:36:41;1.70;;;1.60;;
6007;SDS011;3032;49.484;11.112;2022-09-02T16:39:09;1.17;;;1.13;;
6007;SDS011;3032;49.484;11.112;2022-09-02T16:41:41;1.25;;;1.25;;
6007;SDS011;3032;49.484;11.112;2022-09-02T16:44:17;1.50;;;1.45;;
6007;SDS011;3032;49.484;11.112;2022-09-02T16:46:45;2.22;;;1.27;;
6007;SDS011;3032;49.484;11.112;2022-09-02T16:49:12;2.20;;;2.00;;
6007;SDS011;3032;49.484;11.112;2022-09-02T16:51:42;1.63;;;1.50;;
6007;SDS011;3032;49.484;11.112;2022-09-02T16:54:10;1.38;;;1.27;;
6007;SDS011;3032;49.484;11.112;2022-09-02T16:56:36;1.00;;;1.00;;
6007;SDS011;3032;49.484;11.112;2022-09-02T16:59:02;1.30;;;1.30;;
6007;SDS011;3032;49.484;11.112;2022-09-02T17:01:30;1.38;;;1.38;;
6007;SDS011;3032;49.484;11.112;2022-09-02T17:03:56;1.03;;;1.03;;
6007;SDS011;3032;49.484;11.112;2022-09-02T17:06:23;4.88;;;1.52;;
6007;SDS011;3032;49.484;11.112;2022-09-02T17:08:49;1.90;;;1.70;;
6007;SDS011;3032;49.484;11.112;2022-09-02T17:11:19;1.40;;;1.30;;
6007;SDS011;3032;49.484;11.112;2022-09-02T17:13:52;1.45;;;1.35;;
6007;SDS011;3032;49.484;11.112;2022-09-02T17:16:24;4.15;;;1.45;;
6007;SDS011;3032;49.484;11.112;2022-09-02T17:18:52;3.95;;;1.85;;
6007;SDS011;3032;49.484;11.112;2022-09-02T17:21:28;1.38;;;1.27;;
6007;SDS011;3032;49.484;11.112;2022-09-02T17:24:06;3.90;;;1.85;;
6007;SDS011;3032;49.484;11.112;2022-09-02T17:26:33;1.50;;;1.40;;
6007;SDS011;3032;49.484;11.112;2022-09-02T17:29:05;1.83;;;1.33;;
6007;SDS011;3032;49.484;11.112;2022-09-02T17:31:36;2.25;;;1.20;;
6007;SDS011;3032;49.484;11.112;2022-09-02T17:34:03;3.47;;;1.63;;
6007;SDS011;3032;49.484;11.112;2022-09-02T17:36:31;2.95;;;1.40;;
6007;SDS011;3032;49.484;11.112;2022-09-02T17:38:59;1.52;;;1.42;;
6007;SDS011;3032;49.484;11.112;2022-09-02T17:41:26;1.30;;;1.20;;
6007;SDS011;3032;49.484;11.112;2022-09-02T17:44:11;1.55;;;1.45;;
6007;SDS011;3032;49.484;11.112;2022-09-02T17:46:38;1.88;;;1.10;;
6007;SDS011;3032;49.484;11.112;2022-09-02T17:49:03;1.67;;;1.47;;
6007;SDS011;3032;49.484;11.112;2022-09-02T17:51:29;1.50;;;1.23;;
6007;SDS011;3032;49.484;11.112;2022-09-02T17:53:55;2.33;;;1.20;;
6007;SDS011;3032;49.484;11.112;2022-09-02T18:01:56;1.88;;;1.27;;
6007;SDS011;3032;49.484;11.112;2022-09-02T18:10:36;2.55;;;1.20;;
6007;SDS011;3032;49.484;11.112;2022-09-02T18:13:05;1.55;;;1.13;;
6007;SDS011;3032;49.484;11.112;2022-09-02T18:15:43;1.48;;;1.38;;